sensor_id;sensor_type;location;lat;lon;timestamp;temperature;humidity
12568;DHT22;6349;50.904;6.136;2022-11-15T00:01:08;11.30;99.90
12568;DHT22;6349;50.904;6.136;2022-11-15T00:03:09;11.30;99.90
12568;DHT22;6349;50.904;6.136;2022-11-15T00:05:09;11.30;99.90
12568;DHT22;6349;50.904;6.136;2022-11-15T00:07:10;11.30;99.90
12568;DHT22;6349;50.904;6.136;2022-11-15T00:09:10;11.40;99.90
12568;DHT22;6349;50.904;6.136;2022-11-15T00:11:12;11.40;99.90
12568;DHT22;6349;50.904;6.136;2022-11-15T00:13:13;11.40;99.90
12568;DHT22;6349;50.904;6.136;2022-11-15T00:15:13;11.40;99.90
12568;DHT22;6349;50.904;6.136;2022-11-15T00:17:14;11.40;99.90
12568;DHT22;6349;50.904;6.136;2022-11-15T00:19:14;11.40;99.90
12568;DHT22;6349;50.904;6.136;2022-11-15T00:21:15;11.40;99.90
12568;DHT22;6349;50.904;6.136;2022-11-15T00:23:16;11.40;99.90
12568;DHT22;6349;50.904;6.136;2022-11-15T00:25:17;11.40;99.90
12568;DHT22;6349;50.904;6.136;2022-11-15T00:27:17;11.50;99.90
12568;DHT22;6349;50.904;6.136;2022-11-15T00:29:18;11.40;99.90
12568;DHT22;6349;50.904;6.136;2022-11-15T00:31:18;11.50;99.90
12568;DHT22;6349;50.904;6.136;2022-11-15T00:33:19;11.50;99.90
12568;DHT22;6349;50.904;6.136;2022-11-15T00:35:20;11.50;99.90
12568;DHT22;6349;50.904;6.136;2022-11-15T00:37:21;11.50;99.90
12568;DHT22;6349;50.904;6.136;2022-11-15T00:39:21;11.50;99.90
12568;DHT22;6349;50.904;6.136;2022-11-15T00:41:22;11.50;99.90
12568;DHT22;6349;50.904;6.136;2022-11-15T00:43:22;11.50;99.90
12568;DHT22;6349;50.904;6.136;2022-11-15T00:45:24;11.50;99.90
12568;DHT22;6349;50.904;6.136;2022-11-15T00:47:25;11.50;99.90
12568;DHT22;6349;50.904;6.136;2022-11-15T00:49:25;11.50;99.90
12568;DHT22;6349;50.904;6.136;2022-11-15T00:51:26;11.50;99.90
12568;DHT22;6349;50.904;6.136;2022-11-15T00:53:26;11.50;99.90
12568;DHT22;6349;50.904;6.136;2022-11-15T00:55:27;11.50;99.90
12568;DHT22;6349;50.904;6.136;2022-11-15T00:57:28;11.50;99.90
12568;DHT22;6349;50.904;6.136;2022-11-15T00:59:28;11.50;99.90
12568;DHT22;6349;50.904;6.136;2022-11-15T01:01:29;11.50;99.90
12568;DHT22;6349;50.904;6.136;2022-11-15T01:03:32;11.50;99.90
12568;DHT22;6349;50.904;6.136;2022-11-15T01:05:33;11.40;99.90
12568;DHT22;6349;50.904;6.136;2022-11-15T01:07:34;11.40;99.90
12568;DHT22;6349;50.904;6.136;2022-11-15T01:09:34;11.40;99.90
12568;DHT22;6349;50.904;6.136;2022-11-15T01:11:35;11.40;99.90
12568;DHT22;6349;50.904;6.136;2022-11-15T01:13:36;11.40;99.90
12568;DHT22;6349;50.904;6.136;2022-11-15T01:15:40;11.40;99.90
12568;DHT22;6349;50.904;6.136;2022-11-15T01:17:41;11.40;99.90
12568;DHT22;6349;50.904;6.136;2022-11-15T01:19:42;11.50;99.90
12568;DHT22;6349;50.904;6.136;2022-11-15T01:21:42;11.50;99.90
12568;DHT22;6349;50.904;6.136;2022-11-15T01:23:43;11.50;99.90
12568;DHT22;6349;50.904;6.136;2022-11-15T01:25:43;11.50;99.90
12568;DHT22;6349;50.904;6.136;2022-11-15T01:27:44;11.50;99.90
12568;DHT22;6349;50.904;6.136;2022-11-15T01:29:44;11.60;99.90
12568;DHT22;6349;50.904;6.136;2022-11-15T01:31:45;11.60;99.90
12568;DHT22;6349;50.904;6.136;2022-11-15T01:33:47;11.50;99.90
12568;DHT22;6349;50.904;6.136;2022-11-15T01:35:48;11.50;99.90
12568;DHT22;6349;50.904;6.136;2022-11-15T01:37:48;11.50;99.90
12568;DHT22;6349;50.904;6.136;2022-11-15T01:39:49;11.50;99.90
12568;DHT22;6349;50.904;6.136;2022-11-15T01:41:49;11.50;99.90
12568;DHT22;6349;50.904;6.136;2022-11-15T01:43:53;11.50;99.90
12568;DHT22;6349;50.904;6.136;2022-11-15T01:46:00;11.50;99.90
12568;DHT22;6349;50.904;6.136;2022-11-15T01:48:03;11.50;99.90
12568;DHT22;6349;50.904;6.136;2022-11-15T01:50:07;11.50;99.90
12568;DHT22;6349;50.904;6.136;2022-11-15T01:52:12;11.40;99.90
12568;DHT22;6349;50.904;6.136;2022-11-15T01:54:16;11.40;99.90
12568;DHT22;6349;50.904;6.136;2022-11-15T01:56:20;11.40;99.90
12568;DHT22;6349;50.904;6.136;2022-11-15T01:58:22;11.40;99.90
12568;DHT22;6349;50.904;6.136;2022-11-15T02:00:23;11.30;99.90
12568;DHT22;6349;50.904;6.136;2022-11-15T02:02:23;11.20;99.90
12568;DHT22;6349;50.904;6.136;2022-11-15T02:04:28;11.20;99.90
12568;DHT22;6349;50.904;6.136;2022-11-15T02:06:28;11.10;99.90
12568;DHT22;6349;50.904;6.136;2022-11-15T02:08:29;11.10;99.90
12568;DHT22;6349;50.904;6.136;2022-11-15T02:10:30;11.10;99.90
12568;DHT22;6349;50.904;6.136;2022-11-15T02:12:30;11.10;99.90
12568;DHT22;6349;50.904;6.136;2022-11-15T02:14:31;11.10;99.90
12568;DHT22;6349;50.904;6.136;2022-11-15T02:21:57;11.10;99.90
12568;DHT22;6349;50.904;6.136;2022-11-15T02:26:57;11.00;99.90
12568;DHT22;6349;50.904;6.136;2022-11-15T02:29:10;11.00;99.90
12568;DHT22;6349;50.904;6.136;2022-11-15T02:36:02;11.00;99.90
12568;DHT22;6349;50.904;6.136;2022-11-15T02:40:34;11.00;99.90
12568;DHT22;6349;50.904;6.136;2022-11-15T02:42:45;11.00;99.90
12568;DHT22;6349;50.904;6.136;2022-11-15T02:45:13;11.10;99.90
12568;DHT22;6349;50.904;6.136;2022-11-15T02:47:16;11.10;99.90
12568;DHT22;6349;50.904;6.136;2022-11-15T02:49:18;11.10;99.90
12568;DHT22;6349;50.904;6.136;2022-11-15T02:51:19;11.10;99.90
12568;DHT22;6349;50.904;6.136;2022-11-15T02:53:25;11.10;99.90
12568;DHT22;6349;50.904;6.136;2022-11-15T02:55:34;11.10;99.90
12568;DHT22;6349;50.904;6.136;2022-11-15T03:00:11;11.10;99.90
12568;DHT22;6349;50.904;6.136;2022-11-15T03:02:36;11.10;99.90
12568;DHT22;6349;50.904;6.136;2022-11-15T03:04:51;11.10;99.90
12568;DHT22;6349;50.904;6.136;2022-11-15T03:07:00;11.20;99.90
12568;DHT22;6349;50.904;6.136;2022-11-15T03:11:39;11.20;99.90
12568;DHT22;6349;50.904;6.136;2022-11-15T03:16:19;11.30;99.90
12568;DHT22;6349;50.904;6.136;2022-11-15T03:18:28;11.30;99.90
12568;DHT22;6349;50.904;6.136;2022-11-15T03:20:31;11.40;99.90
12568;DHT22;6349;50.904;6.136;2022-11-15T03:22:36;11.40;99.90
12568;DHT22;6349;50.904;6.136;2022-11-15T03:24:38;11.40;99.90
12568;DHT22;6349;50.904;6.136;2022-11-15T03:26:40;11.40;99.90
12568;DHT22;6349;50.904;6.136;2022-11-15T03:28:50;11.40;99.90
12568;DHT22;6349;50.904;6.136;2022-11-15T03:30:53;11.50;99.90
12568;DHT22;6349;50.904;6.136;2022-11-15T03:32:56;11.50;99.90
12568;DHT22;6349;50.904;6.136;2022-11-15T03:35:09;11.50;99.90
12568;DHT22;6349;50.904;6.136;2022-11-15T03:37:12;11.50;99.90
12568;DHT22;6349;50.904;6.136;2022-11-15T03:39:14;11.50;99.90
12568;DHT22;6349;50.904;6.136;2022-11-15T03:41:27;11.60;99.90
12568;DHT22;6349;50.904;6.136;2022-11-15T03:46:00;11.60;99.90
12568;DHT22;6349;50.904;6.136;2022-11-15T03:48:17;11.60;99.90
12568;DHT22;6349;50.904;6.136;2022-11-15T03:50:20;11.50;99.90
12568;DHT22;6349;50.904;6.136;2022-11-15T03:52:22;11.60;99.90
12568;DHT22;6349;50.904;6.136;2022-11-15T03:54:23;11.60;99.90
12568;DHT22;6349;50.904;6.136;2022-11-15T03:56:23;11.60;99.90
12568;DHT22;6349;50.904;6.136;2022-11-15T03:58:24;11.60;99.90
12568;DHT22;6349;50.904;6.136;2022-11-15T04:00:24;11.60;99.90
12568;DHT22;6349;50.904;6.136;2022-11-15T04:02:25;11.60;99.90
12568;DHT22;6349;50.904;6.136;2022-11-15T04:04:26;11.60;99.90
12568;DHT22;6349;50.904;6.136;2022-11-15T04:06:26;11.60;99.90
12568;DHT22;6349;50.904;6.136;2022-11-15T04:08:27;11.60;99.90
12568;DHT22;6349;50.904;6.136;2022-11-15T04:10:27;11.60;99.90
12568;DHT22;6349;50.904;6.136;2022-11-15T04:12:32;11.60;99.90
12568;DHT22;6349;50.904;6.136;2022-11-15T04:14:33;11.60;99.90
12568;DHT22;6349;50.904;6.136;2022-11-15T04:16:34;11.60;99.90
12568;DHT22;6349;50.904;6.136;2022-11-15T04:18:34;11.60;99.90
12568;DHT22;6349;50.904;6.136;2022-11-15T04:20:35;11.60;99.90
12568;DHT22;6349;50.904;6.136;2022-11-15T04:22:56;11.60;99.90
12568;DHT22;6349;50.904;6.136;2022-11-15T04:25:17;11.60;99.90
12568;DHT22;6349;50.904;6.136;2022-11-15T04:27:18;11.60;99.90
12568;DHT22;6349;50.904;6.136;2022-11-15T04:29:18;11.60;99.90
12568;DHT22;6349;50.904;6.136;2022-11-15T04:31:34;11.60;99.90
12568;DHT22;6349;50.904;6.136;2022-11-15T04:33:35;11.60;99.90
12568;DHT22;6349;50.904;6.136;2022-11-15T04:35:35;11.70;99.90
12568;DHT22;6349;50.904;6.136;2022-11-15T04:37:36;11.70;99.90
12568;DHT22;6349;50.904;6.136;2022-11-15T04:39:36;11.70;99.90
12568;DHT22;6349;50.904;6.136;2022-11-15T04:41:37;11.70;99.90
12568;DHT22;6349;50.904;6.136;2022-11-15T04:43:38;11.70;99.90
12568;DHT22;6349;50.904;6.136;2022-11-15T04:45:38;11.60;99.90
12568;DHT22;6349;50.904;6.136;2022-11-15T04:47:39;11.70;99.90
12568;DHT22;6349;50.904;6.136;2022-11-15T04:49:39;11.70;99.90
12568;DHT22;6349;50.904;6.136;2022-11-15T04:51:40;11.60;99.90
12568;DHT22;6349;50.904;6.136;2022-11-15T04:53:40;11.60;99.90
12568;DHT22;6349;50.904;6.136;2022-11-15T04:55:44;11.60;99.90
12568;DHT22;6349;50.904;6.136;2022-11-15T04:57:45;11.60;99.90
12568;DHT22;6349;50.904;6.136;2022-11-15T04:59:46;11.70;99.90
12568;DHT22;6349;50.904;6.136;2022-11-15T05:01:47;11.70;99.90
12568;DHT22;6349;50.904;6.136;2022-11-15T05:03:47;11.70;99.90
12568;DHT22;6349;50.904;6.136;2022-11-15T05:06:08;11.70;99.90
12568;DHT22;6349;50.904;6.136;2022-11-15T05:08:08;11.80;99.90
12568;DHT22;6349;50.904;6.136;2022-11-15T05:10:09;11.80;99.90
12568;DHT22;6349;50.904;6.136;2022-11-15T05:12:09;11.70;99.90
12568;DHT22;6349;50.904;6.136;2022-11-15T05:14:10;11.70;99.90
12568;DHT22;6349;50.904;6.136;2022-11-15T05:16:11;11.70;99.90
12568;DHT22;6349;50.904;6.136;2022-11-15T05:18:11;11.80;99.90
12568;DHT22;6349;50.904;6.136;2022-11-15T05:20:12;11.80;99.90
12568;DHT22;6349;50.904;6.136;2022-11-15T05:22:13;11.80;99.90
12568;DHT22;6349;50.904;6.136;2022-11-15T05:24:14;11.80;99.90
12568;DHT22;6349;50.904;6.136;2022-11-15T05:26:16;11.80;99.90
12568;DHT22;6349;50.904;6.136;2022-11-15T05:28:17;11.70;99.90
12568;DHT22;6349;50.904;6.136;2022-11-15T05:30:18;11.80;99.90
12568;DHT22;6349;50.904;6.136;2022-11-15T05:32:19;11.70;99.90
12568;DHT22;6349;50.904;6.136;2022-11-15T05:34:19;11.70;99.90
12568;DHT22;6349;50.904;6.136;2022-11-15T05:36:38;11.70;99.90
12568;DHT22;6349;50.904;6.136;2022-11-15T05:38:41;11.60;99.90
12568;DHT22;6349;50.904;6.136;2022-11-15T05:40:42;11.60;99.90
12568;DHT22;6349;50.904;6.136;2022-11-15T05:42:43;11.60;99.90
12568;DHT22;6349;50.904;6.136;2022-11-15T05:42:44;11.60;99.90
12568;DHT22;6349;50.904;6.136;2022-11-15T05:44:47;11.60;99.90
12568;DHT22;6349;50.904;6.136;2022-11-15T05:46:50;11.60;99.90
12568;DHT22;6349;50.904;6.136;2022-11-15T05:48:54;11.60;99.90
12568;DHT22;6349;50.904;6.136;2022-11-15T05:50:56;11.70;99.90
12568;DHT22;6349;50.904;6.136;2022-11-15T05:52:57;11.70;99.90
12568;DHT22;6349;50.904;6.136;2022-11-15T05:54:58;11.70;99.90
12568;DHT22;6349;50.904;6.136;2022-11-15T05:56:59;11.70;99.90
12568;DHT22;6349;50.904;6.136;2022-11-15T05:59:00;11.70;99.90
12568;DHT22;6349;50.904;6.136;2022-11-15T06:01:01;11.80;99.90
12568;DHT22;6349;50.904;6.136;2022-11-15T06:03:02;11.70;99.90
12568;DHT22;6349;50.904;6.136;2022-11-15T06:05:03;11.80;99.90
12568;DHT22;6349;50.904;6.136;2022-11-15T06:07:03;11.70;99.90
12568;DHT22;6349;50.904;6.136;2022-11-15T06:09:04;11.70;99.90
12568;DHT22;6349;50.904;6.136;2022-11-15T06:11:06;11.60;99.90
12568;DHT22;6349;50.904;6.136;2022-11-15T06:13:06;11.60;99.90
12568;DHT22;6349;50.904;6.136;2022-11-15T06:15:07;11.70;99.90
12568;DHT22;6349;50.904;6.136;2022-11-15T06:17:08;11.60;99.90
12568;DHT22;6349;50.904;6.136;2022-11-15T06:19:08;11.60;99.90
12568;DHT22;6349;50.904;6.136;2022-11-15T06:21:09;11.60;99.90
12568;DHT22;6349;50.904;6.136;2022-11-15T06:23:10;11.60;99.90
12568;DHT22;6349;50.904;6.136;2022-11-15T06:25:10;11.60;99.90
12568;DHT22;6349;50.904;6.136;2022-11-15T06:27:11;11.60;99.90
12568;DHT22;6349;50.904;6.136;2022-11-15T06:29:12;11.50;99.90
12568;DHT22;6349;50.904;6.136;2022-11-15T06:31:12;11.40;99.90
12568;DHT22;6349;50.904;6.136;2022-11-15T06:33:13;11.40;99.90
12568;DHT22;6349;50.904;6.136;2022-11-15T06:35:14;11.30;99.90
12568;DHT22;6349;50.904;6.136;2022-11-15T06:37:14;11.30;99.90
12568;DHT22;6349;50.904;6.136;2022-11-15T06:39:15;11.30;99.90
12568;DHT22;6349;50.904;6.136;2022-11-15T06:41:15;11.20;99.90
12568;DHT22;6349;50.904;6.136;2022-11-15T06:43:17;11.20;99.90
12568;DHT22;6349;50.904;6.136;2022-11-15T06:45:17;11.20;99.90
12568;DHT22;6349;50.904;6.136;2022-11-15T06:47:18;11.10;99.90
12568;DHT22;6349;50.904;6.136;2022-11-15T06:49:18;11.10;99.90
12568;DHT22;6349;50.904;6.136;2022-11-15T06:51:19;11.10;99.90
12568;DHT22;6349;50.904;6.136;2022-11-15T06:53:20;11.10;99.90
12568;DHT22;6349;50.904;6.136;2022-11-15T06:55:21;11.00;99.90
12568;DHT22;6349;50.904;6.136;2022-11-15T06:57:21;11.00;99.90
12568;DHT22;6349;50.904;6.136;2022-11-15T06:59:22;11.00;99.90
12568;DHT22;6349;50.904;6.136;2022-11-15T07:01:22;11.00;99.90
12568;DHT22;6349;50.904;6.136;2022-11-15T07:03:23;11.00;99.90
12568;DHT22;6349;50.904;6.136;2022-11-15T07:05:23;11.00;99.90
12568;DHT22;6349;50.904;6.136;2022-11-15T07:07:24;11.00;99.90
12568;DHT22;6349;50.904;6.136;2022-11-15T07:09:25;11.00;99.90
12568;DHT22;6349;50.904;6.136;2022-11-15T07:11:26;10.90;99.90
12568;DHT22;6349;50.904;6.136;2022-11-15T07:13:28;10.90;99.90
12568;DHT22;6349;50.904;6.136;2022-11-15T07:15:29;10.90;99.90
12568;DHT22;6349;50.904;6.136;2022-11-15T07:17:29;10.90;99.90
12568;DHT22;6349;50.904;6.136;2022-11-15T07:19:30;10.90;99.90
12568;DHT22;6349;50.904;6.136;2022-11-15T07:21:30;10.90;99.90
12568;DHT22;6349;50.904;6.136;2022-11-15T07:23:33;10.90;99.90
12568;DHT22;6349;50.904;6.136;2022-11-15T07:25:33;10.90;99.90
12568;DHT22;6349;50.904;6.136;2022-11-15T07:27:34;10.90;99.90
12568;DHT22;6349;50.904;6.136;2022-11-15T07:29:35;10.90;99.90
12568;DHT22;6349;50.904;6.136;2022-11-15T07:31:36;10.90;99.90
12568;DHT22;6349;50.904;6.136;2022-11-15T07:33:37;10.90;99.90
12568;DHT22;6349;50.904;6.136;2022-11-15T07:35:37;10.80;99.90
12568;DHT22;6349;50.904;6.136;2022-11-15T07:37:38;10.80;99.90
12568;DHT22;6349;50.904;6.136;2022-11-15T07:39:38;10.80;99.90
12568;DHT22;6349;50.904;6.136;2022-11-15T07:41:39;10.80;99.90
12568;DHT22;6349;50.904;6.136;2022-11-15T07:43:39;10.80;99.90
12568;DHT22;6349;50.904;6.136;2022-11-15T07:45:42;10.80;99.90
12568;DHT22;6349;50.904;6.136;2022-11-15T07:47:47;10.70;99.90
12568;DHT22;6349;50.904;6.136;2022-11-15T07:49:48;10.70;99.90
12568;DHT22;6349;50.904;6.136;2022-11-15T07:51:48;10.70;99.90
12568;DHT22;6349;50.904;6.136;2022-11-15T07:53:49;10.70;99.90
12568;DHT22;6349;50.904;6.136;2022-11-15T07:55:49;10.80;99.90
12568;DHT22;6349;50.904;6.136;2022-11-15T07:57:50;10.70;99.90
12568;DHT22;6349;50.904;6.136;2022-11-15T07:59:50;10.80;99.90
12568;DHT22;6349;50.904;6.136;2022-11-15T08:01:51;10.80;99.90
12568;DHT22;6349;50.904;6.136;2022-11-15T08:03:52;10.80;99.90
12568;DHT22;6349;50.904;6.136;2022-11-15T08:05:52;10.80;99.90
12568;DHT22;6349;50.904;6.136;2022-11-15T08:07:55;10.80;99.90
12568;DHT22;6349;50.904;6.136;2022-11-15T08:09:56;10.70;99.90
12568;DHT22;6349;50.904;6.136;2022-11-15T08:11:56;10.80;99.90
12568;DHT22;6349;50.904;6.136;2022-11-15T08:13:58;10.80;99.90
12568;DHT22;6349;50.904;6.136;2022-11-15T08:16:01;10.80;99.90
12568;DHT22;6349;50.904;6.136;2022-11-15T08:18:04;10.80;99.90
12568;DHT22;6349;50.904;6.136;2022-11-15T08:20:05;10.80;99.90
12568;DHT22;6349;50.904;6.136;2022-11-15T08:22:07;10.80;99.90
12568;DHT22;6349;50.904;6.136;2022-11-15T08:24:10;10.80;99.90
12568;DHT22;6349;50.904;6.136;2022-11-15T08:26:11;10.80;99.90
12568;DHT22;6349;50.904;6.136;2022-11-15T08:28:11;10.80;99.90
12568;DHT22;6349;50.904;6.136;2022-11-15T08:30:12;10.80;99.90
12568;DHT22;6349;50.904;6.136;2022-11-15T08:32:13;10.80;99.90
12568;DHT22;6349;50.904;6.136;2022-11-15T08:34:14;10.80;99.90
12568;DHT22;6349;50.904;6.136;2022-11-15T08:36:16;10.80;99.90
12568;DHT22;6349;50.904;6.136;2022-11-15T08:38:17;10.80;99.90
12568;DHT22;6349;50.904;6.136;2022-11-15T08:40:17;10.80;99.90
12568;DHT22;6349;50.904;6.136;2022-11-15T08:42:19;10.70;99.90
12568;DHT22;6349;50.904;6.136;2022-11-15T08:44:19;10.80;99.90
12568;DHT22;6349;50.904;6.136;2022-11-15T08:46:20;10.80;99.90
12568;DHT22;6349;50.904;6.136;2022-11-15T08:48:20;10.80;99.90
12568;DHT22;6349;50.904;6.136;2022-11-15T08:50:21;10.80;99.90
12568;DHT22;6349;50.904;6.136;2022-11-15T08:52:21;10.80;99.90
12568;DHT22;6349;50.904;6.136;2022-11-15T08:54:22;10.80;99.90
12568;DHT22;6349;50.904;6.136;2022-11-15T08:56:23;10.80;99.90
12568;DHT22;6349;50.904;6.136;2022-11-15T08:58:23;10.80;99.90
12568;DHT22;6349;50.904;6.136;2022-11-15T09:00:24;10.80;99.90
12568;DHT22;6349;50.904;6.136;2022-11-15T09:02:25;10.80;99.90
12568;DHT22;6349;50.904;6.136;2022-11-15T09:04:26;10.80;99.90
12568;DHT22;6349;50.904;6.136;2022-11-15T09:06:26;10.80;99.90
12568;DHT22;6349;50.904;6.136;2022-11-15T09:08:30;10.80;99.90
12568;DHT22;6349;50.904;6.136;2022-11-15T09:10:31;10.80;99.90
12568;DHT22;6349;50.904;6.136;2022-11-15T09:12:32;10.90;99.90
12568;DHT22;6349;50.904;6.136;2022-11-15T09:14:33;10.90;99.90
12568;DHT22;6349;50.904;6.136;2022-11-15T09:16:34;10.90;99.90
12568;DHT22;6349;50.904;6.136;2022-11-15T09:18:34;10.90;99.90
12568;DHT22;6349;50.904;6.136;2022-11-15T09:20:35;10.90;99.90
12568;DHT22;6349;50.904;6.136;2022-11-15T09:22:36;10.90;99.90
12568;DHT22;6349;50.904;6.136;2022-11-15T09:24:38;11.00;99.90
12568;DHT22;6349;50.904;6.136;2022-11-15T09:26:40;11.00;99.90
12568;DHT22;6349;50.904;6.136;2022-11-15T09:28:40;11.10;99.90
12568;DHT22;6349;50.904;6.136;2022-11-15T09:30:42;11.10;99.90
12568;DHT22;6349;50.904;6.136;2022-11-15T09:32:43;11.10;99.90
12568;DHT22;6349;50.904;6.136;2022-11-15T09:34:43;11.10;99.90
12568;DHT22;6349;50.904;6.136;2022-11-15T09:36:44;11.10;99.90
12568;DHT22;6349;50.904;6.136;2022-11-15T09:38:45;11.10;99.90
12568;DHT22;6349;50.904;6.136;2022-11-15T09:40:50;11.20;99.90
12568;DHT22;6349;50.904;6.136;2022-11-15T09:43:06;11.20;99.90
12568;DHT22;6349;50.904;6.136;2022-11-15T09:46:05;11.20;99.90
12568;DHT22;6349;50.904;6.136;2022-11-15T09:50:41;11.30;99.90
12568;DHT22;6349;50.904;6.136;2022-11-15T09:52:45;11.40;99.90
12568;DHT22;6349;50.904;6.136;2022-11-15T09:54:48;11.40;99.90
12568;DHT22;6349;50.904;6.136;2022-11-15T09:56:50;11.40;99.90
12568;DHT22;6349;50.904;6.136;2022-11-15T10:02:12;11.50;99.90
12568;DHT22;6349;50.904;6.136;2022-11-15T10:04:02;11.60;99.90
12568;DHT22;6349;50.904;6.136;2022-11-15T10:06:04;11.50;99.90
12568;DHT22;6349;50.904;6.136;2022-11-15T10:08:40;11.60;99.90
12568;DHT22;6349;50.904;6.136;2022-11-15T10:10:43;11.60;99.90
12568;DHT22;6349;50.904;6.136;2022-11-15T10:12:48;11.60;99.90
12568;DHT22;6349;50.904;6.136;2022-11-15T10:14:50;11.60;99.90
12568;DHT22;6349;50.904;6.136;2022-11-15T10:17:14;11.60;99.90
12568;DHT22;6349;50.904;6.136;2022-11-15T10:19:53;11.60;99.90
12568;DHT22;6349;50.904;6.136;2022-11-15T10:22:31;11.60;99.90
12568;DHT22;6349;50.904;6.136;2022-11-15T10:24:40;11.60;99.90
12568;DHT22;6349;50.904;6.136;2022-11-15T10:26:49;11.60;99.90
12568;DHT22;6349;50.904;6.136;2022-11-15T10:28:51;11.70;99.90
12568;DHT22;6349;50.904;6.136;2022-11-15T10:40:22;12.00;99.90
12568;DHT22;6349;50.904;6.136;2022-11-15T10:49:24;12.20;99.90
12568;DHT22;6349;50.904;6.136;2022-11-15T10:51:27;12.30;99.90
12568;DHT22;6349;50.904;6.136;2022-11-15T10:53:33;12.30;99.90
12568;DHT22;6349;50.904;6.136;2022-11-15T10:55:40;12.40;99.90
12568;DHT22;6349;50.904;6.136;2022-11-15T10:57:51;12.50;99.90
12568;DHT22;6349;50.904;6.136;2022-11-15T10:59:54;12.60;99.90
12568;DHT22;6349;50.904;6.136;2022-11-15T11:01:56;12.60;99.90
12568;DHT22;6349;50.904;6.136;2022-11-15T11:04:02;12.60;99.90
12568;DHT22;6349;50.904;6.136;2022-11-15T11:08:23;12.60;99.90
12568;DHT22;6349;50.904;6.136;2022-11-15T11:10:24;12.70;99.90
12568;DHT22;6349;50.904;6.136;2022-11-15T11:12:28;12.80;99.90
12568;DHT22;6349;50.904;6.136;2022-11-15T11:14:32;12.90;99.90
12568;DHT22;6349;50.904;6.136;2022-11-15T11:16:44;12.90;99.90
12568;DHT22;6349;50.904;6.136;2022-11-15T11:19:29;12.90;99.90
12568;DHT22;6349;50.904;6.136;2022-11-15T11:26:41;13.30;99.90
12568;DHT22;6349;50.904;6.136;2022-11-15T11:34:50;13.30;99.90
12568;DHT22;6349;50.904;6.136;2022-11-15T11:39:17;13.40;99.90
12568;DHT22;6349;50.904;6.136;2022-11-15T11:42:01;13.40;99.90
12568;DHT22;6349;50.904;6.136;2022-11-15T11:46:51;13.30;99.90
12568;DHT22;6349;50.904;6.136;2022-11-15T11:51:38;13.30;99.90
12568;DHT22;6349;50.904;6.136;2022-11-15T11:53:51;13.30;99.90
12568;DHT22;6349;50.904;6.136;2022-11-15T11:55:56;13.30;99.90
12568;DHT22;6349;50.904;6.136;2022-11-15T11:58:10;13.30;99.90
12568;DHT22;6349;50.904;6.136;2022-11-15T12:00:22;13.30;99.90
12568;DHT22;6349;50.904;6.136;2022-11-15T12:02:39;13.20;99.90
12568;DHT22;6349;50.904;6.136;2022-11-15T12:04:46;13.30;99.90
12568;DHT22;6349;50.904;6.136;2022-11-15T12:06:51;13.30;99.90
12568;DHT22;6349;50.904;6.136;2022-11-15T12:09:10;13.30;99.90
12568;DHT22;6349;50.904;6.136;2022-11-15T12:11:17;13.30;99.90
12568;DHT22;6349;50.904;6.136;2022-11-15T12:13:24;13.40;99.90
12568;DHT22;6349;50.904;6.136;2022-11-15T12:15:31;13.40;99.90
12568;DHT22;6349;50.904;6.136;2022-11-15T12:17:33;13.50;99.90
12568;DHT22;6349;50.904;6.136;2022-11-15T12:19:35;13.60;99.90
12568;DHT22;6349;50.904;6.136;2022-11-15T12:22:00;13.80;99.90
12568;DHT22;6349;50.904;6.136;2022-11-15T12:24:09;13.80;99.90
12568;DHT22;6349;50.904;6.136;2022-11-15T12:26:23;13.80;99.90
12568;DHT22;6349;50.904;6.136;2022-11-15T12:28:45;13.80;99.90
12568;DHT22;6349;50.904;6.136;2022-11-15T12:30:54;13.80;99.90
12568;DHT22;6349;50.904;6.136;2022-11-15T12:32:58;13.70;99.90
12568;DHT22;6349;50.904;6.136;2022-11-15T12:35:01;13.70;99.90
12568;DHT22;6349;50.904;6.136;2022-11-15T12:49:03;13.70;99.90
12568;DHT22;6349;50.904;6.136;2022-11-15T12:51:08;13.60;99.90
12568;DHT22;6349;50.904;6.136;2022-11-15T12:55:35;13.60;99.90
12568;DHT22;6349;50.904;6.136;2022-11-15T12:57:41;13.60;99.90
12568;DHT22;6349;50.904;6.136;2022-11-15T13:00:38;13.60;99.90
12568;DHT22;6349;50.904;6.136;2022-11-15T13:02:25;13.60;99.90
12568;DHT22;6349;50.904;6.136;2022-11-15T13:04:28;13.60;99.90
12568;DHT22;6349;50.904;6.136;2022-11-15T13:06:43;13.60;99.90
12568;DHT22;6349;50.904;6.136;2022-11-15T13:08:47;13.70;99.90
12568;DHT22;6349;50.904;6.136;2022-11-15T13:10:47;13.70;99.90
12568;DHT22;6349;50.904;6.136;2022-11-15T13:12:50;13.70;99.90
12568;DHT22;6349;50.904;6.136;2022-11-15T13:17:28;13.70;99.90
12568;DHT22;6349;50.904;6.136;2022-11-15T13:19:30;13.70;99.90
12568;DHT22;6349;50.904;6.136;2022-11-15T13:21:30;13.70;99.90
12568;DHT22;6349;50.904;6.136;2022-11-15T13:23:53;13.70;99.90
12568;DHT22;6349;50.904;6.136;2022-11-15T13:26:05;13.80;99.90
12568;DHT22;6349;50.904;6.136;2022-11-15T13:30:24;13.80;99.90
12568;DHT22;6349;50.904;6.136;2022-11-15T13:32:25;13.80;99.90
12568;DHT22;6349;50.904;6.136;2022-11-15T13:34:30;13.80;99.90
12568;DHT22;6349;50.904;6.136;2022-11-15T13:36:33;13.80;99.90
12568;DHT22;6349;50.904;6.136;2022-11-15T13:38:38;13.80;99.90
12568;DHT22;6349;50.904;6.136;2022-11-15T13:40:39;13.80;99.90
12568;DHT22;6349;50.904;6.136;2022-11-15T13:42:39;13.80;99.90
12568;DHT22;6349;50.904;6.136;2022-11-15T13:44:58;13.80;99.90
12568;DHT22;6349;50.904;6.136;2022-11-15T13:47:13;13.80;99.90
12568;DHT22;6349;50.904;6.136;2022-11-15T13:49:13;13.80;99.90
12568;DHT22;6349;50.904;6.136;2022-11-15T13:51:49;13.70;99.90
12568;DHT22;6349;50.904;6.136;2022-11-15T13:53:41;13.70;99.90
12568;DHT22;6349;50.904;6.136;2022-11-15T13:55:43;13.70;99.90
12568;DHT22;6349;50.904;6.136;2022-11-15T13:57:54;13.70;99.90
12568;DHT22;6349;50.904;6.136;2022-11-15T14:00:06;13.60;99.90
12568;DHT22;6349;50.904;6.136;2022-11-15T14:02:30;13.60;99.90
12568;DHT22;6349;50.904;6.136;2022-11-15T14:04:32;13.60;99.90
12568;DHT22;6349;50.904;6.136;2022-11-15T14:06:44;13.60;99.90
12568;DHT22;6349;50.904;6.136;2022-11-15T14:09:37;13.60;99.90
12568;DHT22;6349;50.904;6.136;2022-11-15T14:11:25;13.50;99.90
12568;DHT22;6349;50.904;6.136;2022-11-15T14:13:28;13.60;99.90
12568;DHT22;6349;50.904;6.136;2022-11-15T14:15:32;13.60;99.90
12568;DHT22;6349;50.904;6.136;2022-11-15T14:17:35;13.60;99.90
12568;DHT22;6349;50.904;6.136;2022-11-15T14:19:38;13.60;99.90
12568;DHT22;6349;50.904;6.136;2022-11-15T14:22:07;13.60;99.90
12568;DHT22;6349;50.904;6.136;2022-11-15T14:24:30;13.60;99.90
12568;DHT22;6349;50.904;6.136;2022-11-15T14:26:33;13.60;99.90
12568;DHT22;6349;50.904;6.136;2022-11-15T14:28:34;13.60;99.90
12568;DHT22;6349;50.904;6.136;2022-11-15T14:30:39;13.60;99.90
12568;DHT22;6349;50.904;6.136;2022-11-15T14:34:58;13.60;99.90
12568;DHT22;6349;50.904;6.136;2022-11-15T14:36:59;13.60;99.90
12568;DHT22;6349;50.904;6.136;2022-11-15T14:38:59;13.60;99.90
12568;DHT22;6349;50.904;6.136;2022-11-15T14:41:01;13.50;99.90
12568;DHT22;6349;50.904;6.136;2022-11-15T14:43:02;13.50;99.90
12568;DHT22;6349;50.904;6.136;2022-11-15T14:45:02;13.50;99.90